createdAt,value
2019-05-20T00:02:24.533Z,15.15
2019-05-20T00:04:42.368Z,15.00
2019-05-20T00:07:10.823Z,16.67
2019-05-20T00:09:39.631Z,14.83
2019-05-20T00:12:08.091Z,12.78
2019-05-20T00:14:36.550Z,16.32
2019-05-20T00:17:04.991Z,16.02
2019-05-20T00:19:33.442Z,15.80
2019-05-20T00:22:01.887Z,16.50
2019-05-20T00:24:30.341Z,14.83
2019-05-20T00:26:59.100Z,16.25
2019-05-20T00:29:27.559Z,16.50
2019-05-20T00:31:56.008Z,13.62
2019-05-20T00:34:34.724Z,15.45
2019-05-20T00:36:54.624Z,15.60
2019-05-20T00:39:23.078Z,16.67
2019-05-20T00:41:51.519Z,16.57
2019-05-20T00:44:20.339Z,16.87
2019-05-20T00:46:48.916Z,14.98
2019-05-20T00:49:17.361Z,17.32
2019-05-20T00:51:46.109Z,18.23
2019-05-20T00:54:14.818Z,15.98
2019-05-20T00:56:43.351Z,16.75
2019-05-20T00:59:12.124Z,18.30
2019-05-20T01:01:40.915Z,19.05
2019-05-20T01:04:09.699Z,18.02
2019-05-20T01:06:38.141Z,17.23
2019-05-20T01:09:07.739Z,19.48
2019-05-20T01:11:36.443Z,19.48
2019-05-20T01:14:05.254Z,17.60
2019-05-20T01:16:33.768Z,20.00
2019-05-20T01:19:02.399Z,20.27
2019-05-20T01:21:30.834Z,21.73
2019-05-20T01:23:59.311Z,21.27
2019-05-20T01:26:28.083Z,20.72
2019-05-20T01:28:56.600Z,22.02
2019-05-20T01:31:25.055Z,21.77
2019-05-20T01:33:53.496Z,22.60
2019-05-20T01:36:21.962Z,21.05
2019-05-20T01:38:50.691Z,22.55
2019-05-20T01:41:19.479Z,21.15
2019-05-20T01:43:47.928Z,22.67
2019-05-20T01:46:16.751Z,23.35
2019-05-20T01:48:45.459Z,22.77
2019-05-20T01:51:13.911Z,25.30
2019-05-20T01:53:42.355Z,21.62
2019-05-20T01:56:10.811Z,22.07
2019-05-20T01:58:39.825Z,23.35
2019-05-20T02:01:08.382Z,22.32
2019-05-20T02:03:37.347Z,22.42
2019-05-20T02:06:05.807Z,22.95
2019-05-20T02:08:34.243Z,22.93
2019-05-20T02:11:02.711Z,23.12
2019-05-20T02:13:51.290Z,21.37
2019-05-20T02:16:21.617Z,23.12
2019-05-20T02:18:50.137Z,22.35
2019-05-20T02:21:18.722Z,21.87
2019-05-20T02:23:47.182Z,22.07
2019-05-20T02:26:15.631Z,23.22
2019-05-20T02:28:44.088Z,24.12
2019-05-20T02:31:12.602Z,20.65
2019-05-20T02:33:51.808Z,23.25
2019-05-20T02:36:11.308Z,25.08
2019-05-20T02:38:40.008Z,22.52
2019-05-20T02:41:08.719Z,24.98
2019-05-20T02:43:37.337Z,21.15
2019-05-20T02:46:06.236Z,22.35
2019-05-20T02:48:34.943Z,24.52
2019-05-20T02:51:03.666Z,24.67
2019-05-20T02:53:32.123Z,27.90
2019-05-20T02:56:00.851Z,24.30
2019-05-20T02:58:29.389Z,26.97
2019-05-20T03:00:58.224Z,25.52
2019-05-20T03:03:27.007Z,26.87
2019-05-20T03:05:55.463Z,23.05
2019-05-20T03:08:23.922Z,22.62
2019-05-20T03:10:52.662Z,26.20
2019-05-20T03:13:21.148Z,26.27
2019-05-20T03:15:49.652Z,26.30
2019-05-20T03:18:18.131Z,25.52
2019-05-20T03:20:46.634Z,25.05
2019-05-20T03:23:15.083Z,26.85
2019-05-20T03:25:44.109Z,27.00
2019-05-20T03:28:12.605Z,26.97
2019-05-20T03:30:41.124Z,24.82
2019-05-20T03:33:09.584Z,25.70
2019-05-20T03:35:38.129Z,23.50
2019-05-20T03:38:06.880Z,30.02
2019-05-20T03:40:35.597Z,26.60
2019-05-20T03:43:04.313Z,27.50
2019-05-20T03:45:32.761Z,29.20
2019-05-20T03:48:01.268Z,27.70
2019-05-20T03:50:29.702Z,27.17
2019-05-20T03:52:58.153Z,28.55
2019-05-20T03:55:26.860Z,29.72
2019-05-20T03:57:55.286Z,28.98
2019-05-20T04:00:44.494Z,27.60
2019-05-20T04:03:14.312Z,21.80
2019-05-20T04:05:43.164Z,27.58
2019-05-20T04:08:11.592Z,26.62
2019-05-20T04:10:40.106Z,26.05
2019-05-20T04:13:08.541Z,24.25
2019-05-20T04:15:37.363Z,26.57
2019-05-20T04:18:05.792Z,26.42
2019-05-20T04:20:34.259Z,25.92
2019-05-20T04:23:02.762Z,25.27
2019-05-20T04:25:31.444Z,25.55
2019-05-20T04:27:59.929Z,24.40
2019-05-20T04:30:28.470Z,26.02
2019-05-20T04:32:56.877Z,27.02
2019-05-20T04:35:25.571Z,26.30
2019-05-20T04:37:54.259Z,23.07
2019-05-20T04:40:22.709Z,24.43
2019-05-20T04:42:51.403Z,26.73
2019-05-20T04:45:20.012Z,22.90
2019-05-20T04:47:48.515Z,26.07
2019-05-20T04:50:17.076Z,22.75
2019-05-20T04:52:45.526Z,24.82
2019-05-20T04:55:14.197Z,25.15
2019-05-20T04:57:42.630Z,25.77
2019-05-20T05:00:13.111Z,26.68
2019-05-20T05:02:43.645Z,26.05
2019-05-20T05:05:12.028Z,24.35
2019-05-20T05:07:40.529Z,25.45
2019-05-20T05:10:10.818Z,25.57
2019-05-20T05:12:39.830Z,25.17
2019-05-20T05:15:10.268Z,25.35
2019-05-20T05:17:38.695Z,26.23
2019-05-20T05:20:07.581Z,26.65
2019-05-20T05:22:36.755Z,27.75
2019-05-20T05:25:07.017Z,25.50
2019-05-20T05:27:35.497Z,23.75
2019-05-20T05:30:06.854Z,25.23
2019-05-20T05:32:41.434Z,24.32
2019-05-20T05:35:12.429Z,26.90
2019-05-20T05:37:40.985Z,26.10
2019-05-20T05:40:09.974Z,23.77
2019-05-20T05:42:38.490Z,25.92
2019-05-20T05:45:08.267Z,21.82
2019-05-20T05:47:37.191Z,25.45
2019-05-20T05:50:06.384Z,23.40
2019-05-20T05:52:34.929Z,26.00
2019-05-20T05:55:03.997Z,21.85
2019-05-20T05:57:32.714Z,21.33
2019-05-20T06:00:01.451Z,19.27
2019-05-20T06:02:29.956Z,19.20
2019-05-20T06:04:58.648Z,22.90
2019-05-20T06:07:27.107Z,22.70
2019-05-20T06:09:55.617Z,22.48
2019-05-20T06:12:26.116Z,21.37
2019-05-20T06:14:54.593Z,21.87
2019-05-20T06:17:23.486Z,22.17
2019-05-20T06:19:52.200Z,22.22
2019-05-20T06:22:20.896Z,21.27
2019-05-20T06:24:49.408Z,21.05
2019-05-20T06:27:17.912Z,22.02
2019-05-20T06:29:46.653Z,20.77
2019-05-20T06:32:15.361Z,20.32
2019-05-20T06:34:44.545Z,19.98
2019-05-20T06:37:14.613Z,20.43
2019-05-20T06:39:43.147Z,18.67
2019-05-20T06:42:11.582Z,21.80
2019-05-20T06:44:52.108Z,23.32
2019-05-20T06:47:13.184Z,23.47
2019-05-20T06:49:41.627Z,23.70
2019-05-20T06:52:10.128Z,22.30
2019-05-20T06:54:38.709Z,23.77
2019-05-20T06:57:07.157Z,22.70
2019-05-20T06:59:36.009Z,21.68
2019-05-20T07:02:04.527Z,23.07
2019-05-20T07:04:33.055Z,18.65
2019-05-20T07:07:01.476Z,21.62
2019-05-20T07:09:31.837Z,21.02
2019-05-20T07:12:05.966Z,20.65
2019-05-20T07:14:34.868Z,18.17
2019-05-20T07:17:03.875Z,20.70
2019-05-20T07:19:33.248Z,18.57
2019-05-20T07:22:04.152Z,20.65
2019-05-20T07:24:35.944Z,18.77
2019-05-20T07:27:04.919Z,20.62
2019-05-20T07:29:33.477Z,20.85
2019-05-20T07:32:02.227Z,18.87
2019-05-20T07:34:30.726Z,19.62
2019-05-20T07:48:55.348Z,17.95
2019-05-20T07:54:45.304Z,21.97
2019-05-20T08:00:40.569Z,20.23
2019-05-20T08:03:10.903Z,23.10
2019-05-20T08:05:41.358Z,20.37
2019-05-20T08:08:12.447Z,21.48
2019-05-20T08:10:41.453Z,19.70
2019-05-20T08:13:11.688Z,19.73
2019-05-20T08:15:41.695Z,19.55
2019-05-20T08:18:11.884Z,20.37
2019-05-20T08:20:40.765Z,20.88
2019-05-20T08:23:10.476Z,21.70
2019-05-20T08:25:40.304Z,18.87
2019-05-20T08:28:09.306Z,21.93
2019-05-20T08:30:43.735Z,19.92
2019-05-20T08:33:14.255Z,18.15
2019-05-20T08:35:48.169Z,18.82
2019-05-20T08:38:18.498Z,17.35
2019-05-20T08:40:48.923Z,17.07
2019-05-20T08:43:19.858Z,15.93
2019-05-20T08:45:52.609Z,15.05
2019-05-20T08:50:51.998Z,15.13
2019-05-20T08:53:20.948Z,15.30
2019-05-20T08:55:50.848Z,16.37
2019-05-20T08:58:20.368Z,15.68
2019-05-20T09:00:51.780Z,14.80
2019-05-20T09:03:23.363Z,12.50
2019-05-20T09:05:57.710Z,14.05
2019-05-20T09:08:26.544Z,12.93
2019-05-20T09:11:00.358Z,16.10
2019-05-20T09:13:30.824Z,14.65
2019-05-20T09:16:01.102Z,14.53
2019-05-20T09:18:31.521Z,11.93
2019-05-20T09:21:00.500Z,12.03
2019-05-20T09:23:31.448Z,13.10
2019-05-20T09:26:00.704Z,14.53
2019-05-20T09:28:33.194Z,12.07
2019-05-20T09:31:01.726Z,13.15
2019-05-20T09:33:30.612Z,10.82
2019-05-20T09:35:59.074Z,12.18
2019-05-20T09:38:27.547Z,12.37
2019-05-20T09:40:57.010Z,11.70
2019-05-20T09:43:25.801Z,12.15
2019-05-20T09:46:06.162Z,12.37
2019-05-20T09:48:25.350Z,12.35
2019-05-20T09:50:54.219Z,10.82
2019-05-20T09:53:23.672Z,10.80
2019-05-20T09:55:52.117Z,12.05
2019-05-20T09:58:20.650Z,11.38
2019-05-20T10:00:49.081Z,11.38
2019-05-20T10:03:17.549Z,11.40
2019-05-20T10:05:46.012Z,10.88
2019-05-20T10:08:14.725Z,12.23
2019-05-20T10:10:43.544Z,12.05
2019-05-20T10:13:12.099Z,12.05
2019-05-20T10:15:41.183Z,11.55
2019-05-20T10:18:10.465Z,11.08
2019-05-20T10:20:39.180Z,11.68
2019-05-20T10:23:07.789Z,11.65
2019-05-20T10:25:36.228Z,10.32
2019-05-20T10:28:05.073Z,10.25
2019-05-20T10:30:33.545Z,10.70
2019-05-20T10:33:02.051Z,10.70
2019-05-20T10:35:30.498Z,9.45
2019-05-20T10:37:58.934Z,9.40
2019-05-20T10:40:27.387Z,9.08
2019-05-20T10:42:56.070Z,9.03
2019-05-20T10:45:24.502Z,8.68
2019-05-20T10:47:52.933Z,8.70
2019-05-20T10:50:21.389Z,10.08
2019-05-20T10:52:49.812Z,9.78
2019-05-20T10:55:18.808Z,8.90
2019-05-20T10:57:47.491Z,9.08
2019-05-20T11:00:17.507Z,9.25
2019-05-20T11:02:45.965Z,9.78
2019-05-20T11:05:14.643Z,9.05
2019-05-20T11:07:43.111Z,9.23
2019-05-20T11:10:11.797Z,9.83
2019-05-20T11:12:40.237Z,10.55
2019-05-20T11:15:09.883Z,9.38
2019-05-20T11:17:38.335Z,8.90
2019-05-20T11:20:08.054Z,9.45
2019-05-20T11:22:36.773Z,9.13
2019-05-20T11:25:08.141Z,9.03
2019-05-20T11:27:37.066Z,10.35
2019-05-20T11:30:09.837Z,9.80
2019-05-20T11:32:38.587Z,8.78
2019-05-20T11:35:07.831Z,8.83
2019-05-20T11:37:36.584Z,8.38
2019-05-20T11:40:10.463Z,8.55
2019-05-20T11:42:39.528Z,8.90
2019-05-20T11:45:09.688Z,10.55
2019-05-20T11:47:38.119Z,9.73
2019-05-20T11:50:10.350Z,9.48
2019-05-20T11:52:38.844Z,9.98
2019-05-20T11:55:08.896Z,8.90
2019-05-20T11:57:37.796Z,9.43
2019-05-20T12:00:07.528Z,9.45
2019-05-20T12:02:36.279Z,8.88
2019-05-20T12:05:06.522Z,10.10
2019-05-20T12:07:35.057Z,8.65
2019-05-20T12:10:06.525Z,8.18
2019-05-20T12:12:34.959Z,7.72
2019-05-20T12:15:05.846Z,9.25
2019-05-20T12:17:35.354Z,7.40
2019-05-20T12:20:10.216Z,8.28
2019-05-20T12:22:38.468Z,8.25
2019-05-20T12:25:08.010Z,8.10
2019-05-20T12:27:36.526Z,8.25
2019-05-20T12:30:07.146Z,8.40
2019-05-20T12:32:35.624Z,8.35
2019-05-20T12:35:08.172Z,7.80
2019-05-20T12:40:07.477Z,7.45
2019-05-20T12:42:35.600Z,7.72
2019-05-20T12:45:08.924Z,7.37
2019-05-20T12:47:37.437Z,7.17
2019-05-20T12:50:06.950Z,7.10
2019-05-20T12:52:35.664Z,6.90
2019-05-20T12:55:08.567Z,6.37
2019-05-20T12:57:35.580Z,6.10
2019-05-20T13:00:07.340Z,6.67
2019-05-20T13:02:35.764Z,6.70
2019-05-20T13:05:05.948Z,6.45
2019-05-20T13:07:34.402Z,6.33
2019-05-20T13:10:03.625Z,6.28
2019-05-20T13:12:32.120Z,6.70
2019-05-20T13:15:00.561Z,5.60
2019-05-20T13:17:29.006Z,5.72
2019-05-20T13:19:57.767Z,5.85
2019-05-20T13:22:26.185Z,5.78
2019-05-20T13:24:54.887Z,5.00
2019-05-20T13:27:23.321Z,5.15
2019-05-20T13:29:51.833Z,5.72
2019-05-20T13:32:20.510Z,5.80
2019-05-20T13:34:49.289Z,5.80
2019-05-20T13:37:17.718Z,5.30
2019-05-20T13:39:46.169Z,5.15
2019-05-20T13:42:14.603Z,6.05
2019-05-20T13:44:43.099Z,5.00
2019-05-20T13:47:11.635Z,4.87
2019-05-20T13:49:40.096Z,4.70
2019-05-20T13:52:08.693Z,5.10
2019-05-20T13:54:37.375Z,5.30
2019-05-20T13:57:05.813Z,5.70
2019-05-20T13:59:34.244Z,4.85
2019-05-20T14:02:02.702Z,5.25
2019-05-20T14:04:31.159Z,4.90
2019-05-20T14:06:59.596Z,5.00
2019-05-20T14:09:28.045Z,4.75
2019-05-20T14:11:56.548Z,5.45
2019-05-20T14:14:24.981Z,5.00
2019-05-20T14:16:53.685Z,4.67
2019-05-20T14:19:22.837Z,4.45
2019-05-20T14:21:51.758Z,4.90
2019-05-20T14:24:20.187Z,4.53
2019-05-20T14:26:48.861Z,4.67
2019-05-20T14:29:17.308Z,4.42
2019-05-20T14:31:45.798Z,4.72
2019-05-20T14:34:14.362Z,4.70
2019-05-20T14:36:42.816Z,4.42
2019-05-20T14:39:11.731Z,4.42
2019-05-20T14:41:40.469Z,4.40
2019-05-20T14:44:09.005Z,4.42
2019-05-20T14:46:37.722Z,4.25
2019-05-20T14:49:06.932Z,4.40
2019-05-20T14:51:35.347Z,4.65
2019-05-20T14:54:03.785Z,4.97
2019-05-20T14:56:32.529Z,4.47
2019-05-20T14:59:00.952Z,4.75
2019-05-20T15:01:29.758Z,4.80
2019-05-20T15:03:58.518Z,4.30
2019-05-20T15:06:27.239Z,5.10
2019-05-20T15:08:56.039Z,5.67
2019-05-20T15:11:37.142Z,5.50
2019-05-20T15:13:54.797Z,5.42
2019-05-20T15:16:23.320Z,5.35
2019-05-20T15:18:51.749Z,5.08
2019-05-20T15:21:20.444Z,5.20
2019-05-20T15:23:49.154Z,5.12
2019-05-20T15:26:17.598Z,6.20
2019-05-20T15:28:46.306Z,5.70
2019-05-20T15:31:14.740Z,5.80
2019-05-20T15:33:43.189Z,5.50
2019-05-20T15:36:11.612Z,5.62
2019-05-20T15:38:40.059Z,5.50
2019-05-20T15:41:08.500Z,5.35
2019-05-20T15:43:36.936Z,5.50
2019-05-20T15:46:05.686Z,5.10
2019-05-20T15:48:34.125Z,5.00
2019-05-20T15:51:02.599Z,5.60
2019-05-20T15:53:35.403Z,5.55
2019-05-20T15:56:05.454Z,5.20
2019-05-20T15:58:34.139Z,4.85
2019-05-20T16:01:02.581Z,4.95
2019-05-20T16:03:31.017Z,4.55
2019-05-20T16:06:00.231Z,4.80
2019-05-20T16:08:29.430Z,5.22
2019-05-20T16:10:59.510Z,4.87
2019-05-20T16:13:27.931Z,5.30
2019-05-20T16:15:56.658Z,5.28
2019-05-20T16:18:25.394Z,5.17
2019-05-20T16:20:54.088Z,5.05
2019-05-20T16:23:22.519Z,4.47
2019-05-20T16:25:50.960Z,5.10
2019-05-20T16:28:19.678Z,5.37
2019-05-20T16:30:48.481Z,4.97
2019-05-20T16:33:17.010Z,5.75
2019-05-20T16:35:45.495Z,6.05
2019-05-20T16:38:13.955Z,6.08
2019-05-20T16:40:42.625Z,6.62
2019-05-20T16:43:11.083Z,6.42
2019-05-20T16:45:39.496Z,6.15
2019-05-20T16:48:07.978Z,6.55
2019-05-20T16:50:36.458Z,6.03
2019-05-20T16:53:05.309Z,6.92
2019-05-20T16:55:33.830Z,6.50
2019-05-20T16:58:02.271Z,6.45
2019-05-20T17:00:32.312Z,6.67
2019-05-20T17:03:01.022Z,6.65
2019-05-20T17:05:29.616Z,7.15
2019-05-20T17:07:58.041Z,7.40
2019-05-20T17:10:26.549Z,7.75
2019-05-20T17:12:55.625Z,9.10
2019-05-20T17:15:24.096Z,8.03
2019-05-20T17:17:52.884Z,8.08
2019-05-20T17:20:21.673Z,8.85
2019-05-20T17:22:50.466Z,9.60
2019-05-20T17:25:21.853Z,9.78
2019-05-20T17:27:50.386Z,9.68
2019-05-20T17:30:19.471Z,10.35
2019-05-20T17:32:47.971Z,10.80
2019-05-20T17:35:16.551Z,10.53
2019-05-20T17:37:45.240Z,9.73
2019-05-20T17:40:15.848Z,10.85
2019-05-20T17:42:44.670Z,10.13
2019-05-20T17:45:14.889Z,11.20
2019-05-20T17:47:43.776Z,10.98
2019-05-20T17:50:12.550Z,10.68
2019-05-20T17:52:40.993Z,10.55
2019-05-20T17:55:10.041Z,12.00
2019-05-20T17:57:38.563Z,11.83
2019-05-20T18:00:09.529Z,10.90
2019-05-20T18:02:38.337Z,11.35
2019-05-20T18:05:08.116Z,11.20
2019-05-20T18:07:36.689Z,11.68
2019-05-20T18:10:09.370Z,11.33
2019-05-20T18:15:05.986Z,10.75
2019-05-20T18:17:34.497Z,11.43
2019-05-20T18:20:03.955Z,12.10
2019-05-20T18:22:32.389Z,10.63
2019-05-20T18:25:00.864Z,11.05
2019-05-20T18:27:29.878Z,12.60
2019-05-20T18:29:58.287Z,10.53
2019-05-20T18:32:26.742Z,11.75
2019-05-20T18:34:55.429Z,10.93
2019-05-20T18:37:23.953Z,11.35
2019-05-20T18:39:52.852Z,10.90
2019-05-20T18:42:22.023Z,11.85
2019-05-20T18:44:50.728Z,10.98
2019-05-20T18:47:19.438Z,11.22
2019-05-20T18:49:47.881Z,10.90
2019-05-20T18:52:16.328Z,10.30
2019-05-20T18:54:45.057Z,11.08
2019-05-20T18:57:13.524Z,11.40
2019-05-20T18:59:41.983Z,10.43
2019-05-20T19:02:10.710Z,10.70
2019-05-20T19:04:39.150Z,12.85
2019-05-20T19:07:07.733Z,12.07
2019-05-20T19:09:36.464Z,11.65
2019-05-20T19:12:05.158Z,12.90
2019-05-20T19:14:34.038Z,11.53
2019-05-20T19:17:02.477Z,11.22
2019-05-20T19:19:30.942Z,12.18
2019-05-20T19:21:59.425Z,12.05
2019-05-20T19:24:27.865Z,11.18
2019-05-20T19:26:56.646Z,11.18
2019-05-20T19:29:25.537Z,11.48
2019-05-20T19:32:01.442Z,12.43
2019-05-20T19:34:24.518Z,11.55
2019-05-20T19:36:52.971Z,11.25
2019-05-20T19:39:21.713Z,11.05
2019-05-20T19:41:50.837Z,10.08
2019-05-20T19:44:19.616Z,11.35
2019-05-20T19:46:48.048Z,11.40
2019-05-20T19:49:16.665Z,10.70
2019-05-20T19:51:45.271Z,10.93
2019-05-20T19:54:14.083Z,11.05
2019-05-20T19:56:42.601Z,10.23
2019-05-20T19:59:11.042Z,10.05
2019-05-20T20:01:39.477Z,10.05
2019-05-20T20:04:07.925Z,10.63
2019-05-20T20:06:36.357Z,10.63
2019-05-20T20:09:06.288Z,11.65
2019-05-20T20:11:34.741Z,10.20
2019-05-20T20:14:03.185Z,11.68
2019-05-20T20:16:31.616Z,11.40
2019-05-20T20:19:00.064Z,11.68
2019-05-20T20:21:28.764Z,12.50
2019-05-20T20:23:57.208Z,13.15
2019-05-20T20:26:25.903Z,12.25
2019-05-20T20:28:54.345Z,12.75
2019-05-20T20:31:22.879Z,12.10
2019-05-20T20:33:51.656Z,12.98
2019-05-20T20:36:21.487Z,12.47
2019-05-20T20:38:50.068Z,13.13
2019-05-20T20:41:18.505Z,12.53
2019-05-20T20:43:47.580Z,12.78
2019-05-20T20:46:16.122Z,11.57
2019-05-20T20:48:44.638Z,12.85
2019-05-20T20:51:13.088Z,12.33
2019-05-20T20:53:44.873Z,12.65
2019-05-20T20:56:24.933Z,12.37
2019-05-20T20:58:43.480Z,11.85
2019-05-20T21:01:11.970Z,12.37
2019-05-20T21:03:40.440Z,12.55
2019-05-20T21:06:09.133Z,12.80
2019-05-20T21:08:38.106Z,12.68
2019-05-20T21:11:06.557Z,12.28
2019-05-20T21:13:34.993Z,13.30
2019-05-20T21:16:03.496Z,13.08
2019-05-20T21:18:31.929Z,13.70
2019-05-20T21:21:00.405Z,14.68
2019-05-20T21:23:28.849Z,15.50
2019-05-20T21:25:57.387Z,15.70
2019-05-20T21:28:25.826Z,15.15
2019-05-20T21:30:54.540Z,16.23
2019-05-20T21:33:22.989Z,16.70
2019-05-20T21:35:51.439Z,17.00
2019-05-20T21:38:19.873Z,17.35
2019-05-20T21:40:48.333Z,17.82
2019-05-20T21:43:16.760Z,17.57
2019-05-20T21:45:45.489Z,19.30
2019-05-20T21:48:13.991Z,19.23
2019-05-20T21:50:42.522Z,20.35
2019-05-20T21:53:10.952Z,19.70
2019-05-20T21:55:39.405Z,19.35
2019-05-20T21:58:07.844Z,18.85
2019-05-20T22:00:40.956Z,20.85
2019-05-20T22:03:23.558Z,19.90
2019-05-20T22:05:39.623Z,19.23
2019-05-20T22:08:08.101Z,19.77
2019-05-20T22:10:36.616Z,19.85
2019-05-20T22:13:05.060Z,19.15
2019-05-20T22:15:33.559Z,18.82
2019-05-20T22:18:02.011Z,19.07
2019-05-20T22:20:30.443Z,17.98
2019-05-20T22:23:15.873Z,18.42
2019-05-20T22:25:46.576Z,18.75
2019-05-20T22:28:15.070Z,19.10
2019-05-20T22:30:43.502Z,18.77
2019-05-20T22:33:12.450Z,16.77
2019-05-20T22:35:40.884Z,18.17
2019-05-20T22:38:09.335Z,16.48
2019-05-20T22:40:37.788Z,17.30
2019-05-20T22:43:06.286Z,18.02
2019-05-20T22:45:34.997Z,17.52
2019-05-20T22:48:03.444Z,19.27
2019-05-20T22:50:31.897Z,18.52
2019-05-20T22:53:00.329Z,19.48
2019-05-20T22:55:28.769Z,19.40
2019-05-20T22:57:57.232Z,20.60
2019-05-20T23:00:25.928Z,21.37
2019-05-20T23:02:54.373Z,20.88
2019-05-20T23:05:22.813Z,20.72
2019-05-20T23:07:51.269Z,20.48
2019-05-20T23:10:20.043Z,22.25
2019-05-20T23:12:48.485Z,24.05
2019-05-20T23:15:17.253Z,22.22
2019-05-20T23:17:45.698Z,23.62
2019-05-20T23:20:14.390Z,23.52
2019-05-20T23:22:42.835Z,23.10
2019-05-20T23:25:11.415Z,21.97
2019-05-20T23:27:39.861Z,24.60
2019-05-20T23:30:08.721Z,24.65
2019-05-20T23:32:37.439Z,23.12
2019-05-20T23:35:09.422Z,22.73
2019-05-20T23:37:37.863Z,23.07
2019-05-20T23:40:07.294Z,22.50
2019-05-20T23:42:35.721Z,24.52
2019-05-20T23:45:10.351Z,23.87
2019-05-20T23:47:39.566Z,24.05
2019-05-20T23:50:08.251Z,23.45
2019-05-20T23:52:36.688Z,25.55
2019-05-20T23:55:07.702Z,24.18
2019-05-20T23:57:36.128Z,23.67
